sensor_id;sensor_type;location;lat;lon;timestamp;pressure;altitude;pressure_sealevel;temperature;humidity
10145;BME280;5113;41.822;23.564;2023-06-05T00:01:09;-11312.13;;;13.65;100.00
10145;BME280;5113;41.822;23.564;2023-06-05T00:04:15;-11305.81;;;13.42;100.00
10145;BME280;5113;41.822;23.564;2023-06-05T00:07:23;-11310.72;;;13.60;100.00
10145;BME280;5113;41.822;23.564;2023-06-05T00:10:29;-11313.00;;;13.68;100.00
10145;BME280;5113;41.822;23.564;2023-06-05T00:13:36;-11304.13;;;13.36;100.00
10145;BME280;5113;41.822;23.564;2023-06-05T00:16:42;-11311.56;;;13.63;100.00
10145;BME280;5113;41.822;23.564;2023-06-05T00:19:49;-11306.66;;;13.45;100.00
10145;BME280;5113;41.822;23.564;2023-06-05T00:22:57;-11309.88;;;13.57;100.00
10145;BME280;5113;41.822;23.564;2023-06-05T00:26:03;-11298.91;;;13.17;100.00
10145;BME280;5113;41.822;23.564;2023-06-05T00:29:09;-11304.97;;;13.39;100.00
10145;BME280;5113;41.822;23.564;2023-06-05T00:32:16;-11297.78;;;13.13;100.00
10145;BME280;5113;41.822;23.564;2023-06-05T00:35:22;-11302.44;;;13.30;100.00
10145;BME280;5113;41.822;23.564;2023-06-05T00:38:30;-11303.56;;;13.34;100.00
10145;BME280;5113;41.822;23.564;2023-06-05T00:41:37;-11312.56;;;13.67;100.00
10145;BME280;5113;41.822;23.564;2023-06-05T00:44:47;-11303.13;;;13.33;100.00
10145;BME280;5113;41.822;23.564;2023-06-05T00:47:54;-11309.59;;;13.56;100.00
10145;BME280;5113;41.822;23.564;2023-06-05T00:51:01;-11306.22;;;13.44;100.00
10145;BME280;5113;41.822;23.564;2023-06-05T00:54:09;-11303.69;;;13.35;100.00
10145;BME280;5113;41.822;23.564;2023-06-05T00:57:18;-11305.53;;;13.41;100.00
10145;BME280;5113;41.822;23.564;2023-06-05T01:00:24;-11304.69;;;13.38;100.00
10145;BME280;5113;41.822;23.564;2023-06-05T01:03:31;-11303.41;;;13.34;100.00
10145;BME280;5113;41.822;23.564;2023-06-05T01:06:40;-11304.13;;;13.36;100.00
10145;BME280;5113;41.822;23.564;2023-06-05T01:09:48;-11306.22;;;13.44;100.00
10145;BME280;5113;41.822;23.564;2023-06-05T01:12:58;-11306.78;;;13.46;100.00
10145;BME280;5113;41.822;23.564;2023-06-05T01:16:07;-11305.94;;;13.43;100.00
10145;BME280;5113;41.822;23.564;2023-06-05T01:19:15;-11310.16;;;13.58;100.00
10145;BME280;5113;41.822;23.564;2023-06-05T01:22:22;-11306.94;;;13.46;100.00
10145;BME280;5113;41.822;23.564;2023-06-05T01:25:32;-11307.34;;;13.48;100.00
10145;BME280;5113;41.822;23.564;2023-06-05T01:28:40;-11293.28;;;12.97;100.00
10145;BME280;5113;41.822;23.564;2023-06-05T01:31:51;-11292.16;;;12.93;100.00
10145;BME280;5113;41.822;23.564;2023-06-05T01:35:04;-11297.91;;;13.14;100.00
10145;BME280;5113;41.822;23.564;2023-06-05T01:38:12;-11301.72;;;13.28;100.00
10145;BME280;5113;41.822;23.564;2023-06-05T01:41:23;-11296.09;;;13.07;100.00
10145;BME280;5113;41.822;23.564;2023-06-05T01:44:31;-11301.88;;;13.28;100.00
10145;BME280;5113;41.822;23.564;2023-06-05T01:47:39;-11302.56;;;13.31;100.00
10145;BME280;5113;41.822;23.564;2023-06-05T01:50:45;-11290.88;;;12.88;100.00
10145;BME280;5113;41.822;23.564;2023-06-05T01:53:52;-11287.63;;;12.77;100.00
10145;BME280;5113;41.822;23.564;2023-06-05T01:57:00;-11285.69;;;12.70;100.00
10145;BME280;5113;41.822;23.564;2023-06-05T02:00:09;-11283.69;;;12.63;100.00
10145;BME280;5113;41.822;23.564;2023-06-05T02:03:18;-11292.16;;;12.93;100.00
10145;BME280;5113;41.822;23.564;2023-06-05T02:06:25;-11282.84;;;12.60;100.00
10145;BME280;5113;41.822;23.564;2023-06-05T02:09:31;-11290.59;;;12.87;100.00
10145;BME280;5113;41.822;23.564;2023-06-05T02:12:40;-11292.16;;;12.93;100.00
10145;BME280;5113;41.822;23.564;2023-06-05T02:15:46;-11299.19;;;13.18;100.00
10145;BME280;5113;41.822;23.564;2023-06-05T02:18:57;-11296.78;;;13.10;100.00
10145;BME280;5113;41.822;23.564;2023-06-05T02:22:08;-11299.75;;;13.20;100.00
10145;BME280;5113;41.822;23.564;2023-06-05T02:25:15;-11305.53;;;13.41;100.00
10145;BME280;5113;41.822;23.564;2023-06-05T02:28:24;-11299.91;;;13.21;100.00
10145;BME280;5113;41.822;23.564;2023-06-05T02:31:32;-11306.50;;;13.45;100.00
10145;BME280;5113;41.822;23.564;2023-06-05T02:34:38;-11298.50;;;13.16;100.00
10145;BME280;5113;41.822;23.564;2023-06-05T02:37:45;-11299.34;;;13.19;100.00
10145;BME280;5113;41.822;23.564;2023-06-05T02:40:51;-11300.31;;;13.23;100.00
10145;BME280;5113;41.822;23.564;2023-06-05T02:43:59;-11291.59;;;12.91;100.00
10145;BME280;5113;41.822;23.564;2023-06-05T02:47:06;-11297.22;;;13.11;100.00
10145;BME280;5113;41.822;23.564;2023-06-05T02:50:12;-11291.59;;;12.91;100.00
10145;BME280;5113;41.822;23.564;2023-06-05T02:53:18;-11296.78;;;13.10;100.00
10145;BME280;5113;41.822;23.564;2023-06-05T02:56:25;-11295.09;;;13.04;100.00
10145;BME280;5113;41.822;23.564;2023-06-05T02:59:33;-11294.97;;;13.03;100.00
10145;BME280;5113;41.822;23.564;2023-06-05T03:02:45;-11293.84;;;12.99;100.00
10145;BME280;5113;41.822;23.564;2023-06-05T03:05:54;-11281.72;;;12.55;100.00
10145;BME280;5113;41.822;23.564;2023-06-05T03:09:01;-11284.13;;;12.64;100.00
10145;BME280;5113;41.822;23.564;2023-06-05T03:12:08;-11293.00;;;12.96;100.00
10145;BME280;5113;41.822;23.564;2023-06-05T03:15:16;-11292.84;;;12.96;100.00
10145;BME280;5113;41.822;23.564;2023-06-05T03:18:23;-11293.41;;;12.98;100.00
10145;BME280;5113;41.822;23.564;2023-06-05T03:21:30;-11296.66;;;13.09;100.00
10145;BME280;5113;41.822;23.564;2023-06-05T03:24:37;-11289.75;;;12.84;100.00
10145;BME280;5113;41.822;23.564;2023-06-05T03:27:43;-11287.91;;;12.78;100.00
10145;BME280;5113;41.822;23.564;2023-06-05T03:30:52;-11287.34;;;12.76;100.00
10145;BME280;5113;41.822;23.564;2023-06-05T03:33:59;-11298.91;;;13.17;100.00
10145;BME280;5113;41.822;23.564;2023-06-05T03:37:08;-11300.59;;;13.24;100.00
10145;BME280;5113;41.822;23.564;2023-06-05T03:40:15;-11300.03;;;13.21;100.00
10145;BME280;5113;41.822;23.564;2023-06-05T03:43:21;-11303.69;;;13.35;100.00
10145;BME280;5113;41.822;23.564;2023-06-05T03:46:31;-11302.84;;;13.32;100.00
10145;BME280;5113;41.822;23.564;2023-06-05T03:49:38;-11301.88;;;13.28;100.00
10145;BME280;5113;41.822;23.564;2023-06-05T03:52:51;-11296.38;;;13.08;100.00
10145;BME280;5113;41.822;23.564;2023-06-05T03:55:57;-11293.28;;;12.97;100.00
10145;BME280;5113;41.822;23.564;2023-06-05T03:59:05;-11299.19;;;13.18;100.00
10145;BME280;5113;41.822;23.564;2023-06-05T04:02:24;-11302.56;;;13.31;100.00
10145;BME280;5113;41.822;23.564;2023-06-05T04:05:31;-11300.59;;;13.24;100.00
10145;BME280;5113;41.822;23.564;2023-06-05T04:08:37;-11306.38;;;13.44;100.00
10145;BME280;5113;41.822;23.564;2023-06-05T04:11:44;-11307.50;;;13.48;100.00
10145;BME280;5113;41.822;23.564;2023-06-05T04:14:50;-11314.13;;;13.72;100.00
10145;BME280;5113;41.822;23.564;2023-06-05T04:17:58;-11313.84;;;13.71;100.00
10145;BME280;5113;41.822;23.564;2023-06-05T04:21:05;-11315.94;;;13.79;100.00
10145;BME280;5113;41.822;23.564;2023-06-05T04:24:11;-11322.28;;;14.02;100.00
10145;BME280;5113;41.822;23.564;2023-06-05T04:27:17;-11317.91;;;13.86;100.00
10145;BME280;5113;41.822;23.564;2023-06-05T04:30:24;-11316.66;;;13.81;100.00
10145;BME280;5113;41.822;23.564;2023-06-05T04:33:32;-11320.16;;;13.94;100.00
10145;BME280;5113;41.822;23.564;2023-06-05T04:36:39;-11323.81;;;14.07;100.00
10145;BME280;5113;41.822;23.564;2023-06-05T04:39:45;-11320.44;;;13.95;100.00
10145;BME280;5113;41.822;23.564;2023-06-05T04:42:52;-11320.88;;;13.97;100.00
10145;BME280;5113;41.822;23.564;2023-06-05T04:45:59;-11318.34;;;13.87;100.00
10145;BME280;5113;41.822;23.564;2023-06-05T04:49:09;-11321.44;;;13.99;100.00
10145;BME280;5113;41.822;23.564;2023-06-05T04:52:16;-11318.06;;;13.86;100.00
10145;BME280;5113;41.822;23.564;2023-06-05T04:55:22;-11317.50;;;13.84;100.00
10145;BME280;5113;41.822;23.564;2023-06-05T04:58:28;-11322.41;;;14.02;100.00
10145;BME280;5113;41.822;23.564;2023-06-05T05:01:35;-11320.03;;;13.94;100.00
10145;BME280;5113;41.822;23.564;2023-06-05T05:04:43;-11310.88;;;13.61;100.00
10145;BME280;5113;41.822;23.564;2023-06-05T05:07:49;-11320.59;;;13.96;100.00
10145;BME280;5113;41.822;23.564;2023-06-05T05:11:00;-11321.44;;;13.99;100.00
10145;BME280;5113;41.822;23.564;2023-06-05T05:14:06;-11321.72;;;14.00;100.00
10145;BME280;5113;41.822;23.564;2023-06-05T05:17:13;-11327.63;;;14.21;100.00
10145;BME280;5113;41.822;23.564;2023-06-05T05:20:25;-11337.34;;;14.56;100.00
10145;BME280;5113;41.822;23.564;2023-06-05T05:23:32;-11334.09;;;14.44;100.00
10145;BME280;5113;41.822;23.564;2023-06-05T05:26:38;-11337.34;;;14.56;100.00
10145;BME280;5113;41.822;23.564;2023-06-05T05:29:45;-11333.84;;;14.43;100.00
10145;BME280;5113;41.822;23.564;2023-06-05T05:32:52;-11327.22;;;14.19;100.00
10145;BME280;5113;41.822;23.564;2023-06-05T05:36:00;-11335.94;;;14.51;100.00
10145;BME280;5113;41.822;23.564;2023-06-05T05:39:07;-11323.41;;;14.06;100.00
10145;BME280;5113;41.822;23.564;2023-06-05T05:42:15;-11330.31;;;14.31;100.00
10145;BME280;5113;41.822;23.564;2023-06-05T05:45:22;-11350.31;;;15.03;100.00
10145;BME280;5113;41.822;23.564;2023-06-05T05:48:28;-11356.66;;;15.26;100.00
10145;BME280;5113;41.822;23.564;2023-06-05T05:51:37;-11337.06;;;14.55;100.00
10145;BME280;5113;41.822;23.564;2023-06-05T05:54:44;-11337.91;;;14.58;100.00
10145;BME280;5113;41.822;23.564;2023-06-05T05:57:51;-11343.13;;;14.77;100.00
10145;BME280;5113;41.822;23.564;2023-06-05T06:00:57;-11325.09;;;14.12;100.00
10145;BME280;5113;41.822;23.564;2023-06-05T06:04:05;-11332.84;;;14.40;100.00
10145;BME280;5113;41.822;23.564;2023-06-05T06:07:13;-11348.47;;;14.96;100.00
10145;BME280;5113;41.822;23.564;2023-06-05T06:10:20;-11345.94;;;14.87;100.00
10145;BME280;5113;41.822;23.564;2023-06-05T06:13:27;-11358.75;;;15.33;100.00
10145;BME280;5113;41.822;23.564;2023-06-05T06:16:34;-11351.72;;;15.08;100.00
10145;BME280;5113;41.822;23.564;2023-06-05T06:19:40;-11363.97;;;15.52;100.00
10145;BME280;5113;41.822;23.564;2023-06-05T06:22:49;-11364.25;;;15.53;100.00
10145;BME280;5113;41.822;23.564;2023-06-05T06:25:56;-11364.81;;;15.55;100.00
10145;BME280;5113;41.822;23.564;2023-06-05T06:29:02;-11340.03;;;14.66;100.00
10145;BME280;5113;41.822;23.564;2023-06-05T06:32:09;-11369.88;;;15.73;100.00
10145;BME280;5113;41.822;23.564;2023-06-05T06:35:15;-11363.13;;;15.49;100.00
10145;BME280;5113;41.822;23.564;2023-06-05T06:38:23;-11367.91;;;15.66;100.00
10145;BME280;5113;41.822;23.564;2023-06-05T06:41:32;-11352.00;;;15.09;100.00
10145;BME280;5113;41.822;23.564;2023-06-05T06:44:39;-11364.53;;;15.54;100.00
10145;BME280;5113;41.822;23.564;2023-06-05T06:47:46;-11367.91;;;15.66;100.00
10145;BME280;5113;41.822;23.564;2023-06-05T06:51:11;-11347.22;;;14.92;100.00
10145;BME280;5113;41.822;23.564;2023-06-05T06:54:19;-11355.94;;;15.23;100.00
10145;BME280;5113;41.822;23.564;2023-06-05T06:57:26;-11351.00;;;15.05;100.00
10145;BME280;5113;41.822;23.564;2023-06-05T07:00:33;-11364.53;;;15.54;100.00
10145;BME280;5113;41.822;23.564;2023-06-05T07:03:40;-11386.22;;;16.32;100.00
10145;BME280;5113;41.822;23.564;2023-06-05T07:06:47;-11393.84;;;16.60;100.00
10145;BME280;5113;41.822;23.564;2023-06-05T07:09:55;-11399.06;;;16.78;100.00
10145;BME280;5113;41.822;23.564;2023-06-05T07:13:03;-11404.00;;;16.96;100.00
10145;BME280;5113;41.822;23.564;2023-06-05T07:16:09;-11404.28;;;16.97;100.00
10145;BME280;5113;41.822;23.564;2023-06-05T07:19:16;-11417.50;;;17.45;100.00
10145;BME280;5113;41.822;23.564;2023-06-05T07:22:22;-11385.66;;;16.30;100.00
10145;BME280;5113;41.822;23.564;2023-06-05T07:25:31;-11388.47;;;16.40;100.00
10145;BME280;5113;41.822;23.564;2023-06-05T07:28:37;-11410.63;;;17.20;100.00
10145;BME280;5113;41.822;23.564;2023-06-05T07:31:44;-11433.31;;;18.02;100.00
10145;BME280;5113;41.822;23.564;2023-06-05T07:34:50;-11395.25;;;16.65;100.00
10145;BME280;5113;41.822;23.564;2023-06-05T07:37:57;-11445.84;;;18.47;100.00
10145;BME280;5113;41.822;23.564;2023-06-05T07:41:05;-11423.59;;;17.67;100.00
10145;BME280;5113;41.822;23.564;2023-06-05T07:44:15;-11457.13;;;18.88;100.00
10145;BME280;5113;41.822;23.564;2023-06-05T07:47:22;-11481.53;;;19.75;100.00
10145;BME280;5113;41.822;23.564;2023-06-05T07:50:28;-11478.72;;;19.65;100.00
10145;BME280;5113;41.822;23.564;2023-06-05T07:53:34;-11451.78;;;18.68;100.00
10145;BME280;5113;41.822;23.564;2023-06-05T07:56:43;-11464.03;;;19.12;100.00
10145;BME280;5113;41.822;23.564;2023-06-05T07:59:53;-11472.94;;;19.44;100.00
10145;BME280;5113;41.822;23.564;2023-06-05T08:03:00;-11462.63;;;19.07;100.00
10145;BME280;5113;41.822;23.564;2023-06-05T08:06:10;-11473.34;;;19.46;100.00
10145;BME280;5113;41.822;23.564;2023-06-05T08:09:16;-11459.81;;;18.97;100.00
10145;BME280;5113;41.822;23.564;2023-06-05T08:12:24;-11492.97;;;20.17;100.00
10145;BME280;5113;41.822;23.564;2023-06-05T08:15:31;-11458.13;;;18.91;100.00
10145;BME280;5113;41.822;23.564;2023-06-05T08:18:38;-11483.22;;;19.82;100.00
10145;BME280;5113;41.822;23.564;2023-06-05T08:21:45;-11499.88;;;20.41;100.00
10145;BME280;5113;41.822;23.564;2023-06-05T08:24:51;-11528.78;;;21.46;91.47
10145;BME280;5113;41.822;23.564;2023-06-05T08:28:01;-11513.28;;;20.90;92.48
10145;BME280;5113;41.822;23.564;2023-06-05T08:31:07;-11480.25;;;19.71;100.00
10145;BME280;5113;41.822;23.564;2023-06-05T08:34:16;-11496.47;;;20.29;99.64
10145;BME280;5113;41.822;23.564;2023-06-05T08:37:22;-11501.56;;;20.48;98.55
10145;BME280;5113;41.822;23.564;2023-06-05T08:40:28;-11509.88;;;20.77;93.23
10145;BME280;5113;41.822;23.564;2023-06-05T08:43:39;-11512.56;;;20.87;95.54
10145;BME280;5113;41.822;23.564;2023-06-05T08:46:46;-11524.97;;;21.32;96.89
10145;BME280;5113;41.822;23.564;2023-06-05T08:49:54;-11566.88;;;22.83;85.76
10145;BME280;5113;41.822;23.564;2023-06-05T08:53:02;-11574.38;;;23.10;81.06
10145;BME280;5113;41.822;23.564;2023-06-05T08:56:09;-11566.75;;;22.82;82.78
10145;BME280;5113;41.822;23.564;2023-06-05T08:59:18;-11550.66;;;22.24;87.32
10145;BME280;5113;41.822;23.564;2023-06-05T09:02:27;-11536.56;;;21.73;95.03
10145;BME280;5113;41.822;23.564;2023-06-05T09:05:33;-11593.84;;;23.80;87.28
10145;BME280;5113;41.822;23.564;2023-06-05T09:08:40;-11593.84;;;23.80;80.75
10145;BME280;5113;41.822;23.564;2023-06-05T09:11:46;-11609.66;;;24.36;81.98
10145;BME280;5113;41.822;23.564;2023-06-05T09:14:54;-11604.84;;;24.19;79.82
10145;BME280;5113;41.822;23.564;2023-06-05T09:18:08;-11593.56;;;23.79;77.19
10145;BME280;5113;41.822;23.564;2023-06-05T09:21:14;-11584.53;;;23.46;76.26
10145;BME280;5113;41.822;23.564;2023-06-05T09:24:21;-11575.78;;;23.15;76.66
10145;BME280;5113;41.822;23.564;2023-06-05T09:27:29;-11557.84;;;22.50;77.83
10145;BME280;5113;41.822;23.564;2023-06-05T09:30:53;-11552.50;;;22.31;81.67
10145;BME280;5113;41.822;23.564;2023-06-05T09:33:59;-11551.22;;;22.26;83.61
10145;BME280;5113;41.822;23.564;2023-06-05T09:37:07;-11539.94;;;21.86;86.47
10145;BME280;5113;41.822;23.564;2023-06-05T09:40:14;-11550.66;;;22.24;87.33
10145;BME280;5113;41.822;23.564;2023-06-05T09:43:22;-11540.78;;;21.89;90.91
10145;BME280;5113;41.822;23.564;2023-06-05T09:46:30;-11536.69;;;21.74;88.88
10145;BME280;5113;41.822;23.564;2023-06-05T09:49:46;-11521.03;;;21.18;94.03
10145;BME280;5113;41.822;23.564;2023-06-05T09:52:55;-11512.00;;;20.85;93.16
10145;BME280;5113;41.822;23.564;2023-06-05T09:56:02;-11516.09;;;21.00;94.35
10145;BME280;5113;41.822;23.564;2023-06-05T09:59:12;-11537.41;;;21.77;93.31
10145;BME280;5113;41.822;23.564;2023-06-05T10:02:23;-11525.69;;;21.34;94.19
10145;BME280;5113;41.822;23.564;2023-06-05T10:05:32;-11534.28;;;21.65;93.51
10145;BME280;5113;41.822;23.564;2023-06-05T10:08:39;-11532.03;;;21.57;95.45
10145;BME280;5113;41.822;23.564;2023-06-05T10:11:48;-11530.63;;;21.52;98.39
10145;BME280;5113;41.822;23.564;2023-06-05T10:14:55;-11526.94;;;21.39;100.00
10145;BME280;5113;41.822;23.564;2023-06-05T10:18:03;-11530.63;;;21.52;100.00
10145;BME280;5113;41.822;23.564;2023-06-05T10:21:10;-11505.78;;;20.63;100.00
10145;BME280;5113;41.822;23.564;2023-06-05T10:24:20;-11519.34;;;21.12;100.00
10145;BME280;5113;41.822;23.564;2023-06-05T10:27:46;-11506.34;;;20.65;100.00
10145;BME280;5113;41.822;23.564;2023-06-05T10:31:19;-11519.34;;;21.12;100.00
10145;BME280;5113;41.822;23.564;2023-06-05T10:34:40;-11496.91;;;20.31;99.24
10145;BME280;5113;41.822;23.564;2023-06-05T10:38:07;-11516.09;;;21.00;100.00
10145;BME280;5113;41.822;23.564;2023-06-05T10:41:22;-11499.03;;;20.38;100.00
10145;BME280;5113;41.822;23.564;2023-06-05T10:44:42;-11514.25;;;20.93;100.00
10145;BME280;5113;41.822;23.564;2023-06-05T10:47:54;-11523.16;;;21.25;100.00
10145;BME280;5113;41.822;23.564;2023-06-05T10:51:35;-11505.38;;;20.61;100.00
10145;BME280;5113;41.822;23.564;2023-06-05T10:54:56;-11522.88;;;21.24;95.42
10145;BME280;5113;41.822;23.564;2023-06-05T10:58:04;-11527.94;;;21.42;94.55
10145;BME280;5113;41.822;23.564;2023-06-05T11:01:16;-11541.34;;;21.91;89.07
10145;BME280;5113;41.822;23.564;2023-06-05T11:04:23;-11516.78;;;21.02;88.58
10145;BME280;5113;41.822;23.564;2023-06-05T11:07:31;-11531.19;;;21.54;88.20
10145;BME280;5113;41.822;23.564;2023-06-05T11:11:02;-11538.38;;;21.80;83.66
10145;BME280;5113;41.822;23.564;2023-06-05T11:14:08;-11523.00;;;21.25;82.05
10145;BME280;5113;41.822;23.564;2023-06-05T11:17:28;-11546.72;;;22.10;86.47
10145;BME280;5113;41.822;23.564;2023-06-05T11:20:51;-11558.84;;;22.54;83.45
10145;BME280;5113;41.822;23.564;2023-06-05T11:26:54;-11549.81;;;22.21;76.39
10145;BME280;5113;41.822;23.564;2023-06-05T11:30:01;-11569.84;;;22.93;72.85
10145;BME280;5113;41.822;23.564;2023-06-05T11:33:10;-11592.16;;;23.74;67.06
10145;BME280;5113;41.822;23.564;2023-06-05T11:36:22;-11632.53;;;25.19;62.35
10145;BME280;5113;41.822;23.564;2023-06-05T11:39:42;-11618.13;;;24.67;61.83
10145;BME280;5113;41.822;23.564;2023-06-05T11:42:50;-11578.03;;;23.23;62.90
10145;BME280;5113;41.822;23.564;2023-06-05T11:45:59;-11601.47;;;24.07;64.71
10145;BME280;5113;41.822;23.564;2023-06-05T11:49:05;-11594.97;;;23.84;67.33
10145;BME280;5113;41.822;23.564;2023-06-05T11:52:17;-11581.16;;;23.34;68.39
10145;BME280;5113;41.822;23.564;2023-06-05T11:55:27;-11592.72;;;23.76;67.40
10145;BME280;5113;41.822;23.564;2023-06-05T11:58:49;-11626.31;;;24.96;67.04
10145;BME280;5113;41.822;23.564;2023-06-05T12:01:57;-11606.00;;;24.23;63.94
10145;BME280;5113;41.822;23.564;2023-06-05T12:05:05;-11598.66;;;23.97;63.93
10145;BME280;5113;41.822;23.564;2023-06-05T12:08:21;-11614.59;;;24.54;65.32
10145;BME280;5113;41.822;23.564;2023-06-05T12:11:30;-11619.81;;;24.73;60.65
10145;BME280;5113;41.822;23.564;2023-06-05T12:14:38;-11647.34;;;25.72;58.32
10145;BME280;5113;41.822;23.564;2023-06-05T12:17:49;-11661.06;;;26.21;57.18
10145;BME280;5113;41.822;23.564;2023-06-05T12:20:55;-11652.88;;;25.92;59.65
10145;BME280;5113;41.822;23.564;2023-06-05T12:24:03;-11665.44;;;26.37;58.49
10145;BME280;5113;41.822;23.564;2023-06-05T12:27:10;-11677.56;;;26.81;55.94
10145;BME280;5113;41.822;23.564;2023-06-05T12:30:19;-11683.78;;;27.03;54.10
10145;BME280;5113;41.822;23.564;2023-06-05T12:33:25;-11657.09;;;26.07;55.69
10145;BME280;5113;41.822;23.564;2023-06-05T12:36:38;-11678.84;;;26.85;53.71
10145;BME280;5113;41.822;23.564;2023-06-05T12:39:45;-11650.03;;;25.82;55.24
10145;BME280;5113;41.822;23.564;2023-06-05T12:42:51;-11700.59;;;27.64;52.25
10145;BME280;5113;41.822;23.564;2023-06-05T12:46:00;-11685.06;;;27.08;51.59
10145;BME280;5113;41.822;23.564;2023-06-05T12:49:06;-11670.81;;;26.56;54.22
10145;BME280;5113;41.822;23.564;2023-06-05T12:52:13;-11709.91;;;27.97;48.52
10145;BME280;5113;41.822;23.564;2023-06-05T12:55:19;-11711.63;;;28.03;47.69
10145;BME280;5113;41.822;23.564;2023-06-05T12:58:25;-11682.94;;;27.00;53.73
10145;BME280;5113;41.822;23.564;2023-06-05T13:01:33;-11683.94;;;27.04;51.47
10145;BME280;5113;41.822;23.564;2023-06-05T13:04:41;-11697.22;;;27.51;52.35
10145;BME280;5113;41.822;23.564;2023-06-05T13:07:48;-11700.75;;;27.64;49.60
10145;BME280;5113;41.822;23.564;2023-06-05T13:10:56;-11696.78;;;27.50;50.31
10145;BME280;5113;41.822;23.564;2023-06-05T13:14:02;-11694.09;;;27.40;50.48
10145;BME280;5113;41.822;23.564;2023-06-05T13:17:10;-11687.31;;;27.16;54.07
10145;BME280;5113;41.822;23.564;2023-06-05T13:20:17;-11676.31;;;26.76;55.71
10145;BME280;5113;41.822;23.564;2023-06-05T13:23:23;-11663.44;;;26.30;56.48
10145;BME280;5113;41.822;23.564;2023-06-05T13:26:30;-11657.09;;;26.07;53.92
10145;BME280;5113;41.822;23.564;2023-06-05T13:29:36;-11647.22;;;25.72;59.05
10145;BME280;5113;41.822;23.564;2023-06-05T13:32:44;-11629.56;;;25.08;61.41
10145;BME280;5113;41.822;23.564;2023-06-05T13:35:51;-11633.25;;;25.21;62.21
10145;BME280;5113;41.822;23.564;2023-06-05T13:38:58;-11639.88;;;25.45;58.32
10145;BME280;5113;41.822;23.564;2023-06-05T13:42:05;-11647.50;;;25.73;57.73
10145;BME280;5113;41.822;23.564;2023-06-05T13:45:12;-11651.47;;;25.87;56.36
10145;BME280;5113;41.822;23.564;2023-06-05T13:48:20;-11646.38;;;25.69;58.16
10145;BME280;5113;41.822;23.564;2023-06-05T13:51:27;-11629.56;;;25.08;56.19
10145;BME280;5113;41.822;23.564;2023-06-05T13:54:33;-11634.22;;;25.25;59.59
10145;BME280;5113;41.822;23.564;2023-06-05T13:57:39;-11628.00;;;25.02;65.06
10145;BME280;5113;41.822;23.564;2023-06-05T14:00:46;-11629.44;;;25.08;64.17
10145;BME280;5113;41.822;23.564;2023-06-05T14:03:54;-11604.84;;;24.19;58.75
10145;BME280;5113;41.822;23.564;2023-06-05T14:07:01;-11620.09;;;24.74;56.77
10145;BME280;5113;41.822;23.564;2023-06-05T14:10:08;-11604.00;;;24.16;65.60
10145;BME280;5113;41.822;23.564;2023-06-05T14:13:14;-11590.88;;;23.69;70.30
10145;BME280;5113;41.822;23.564;2023-06-05T14:16:21;-11597.38;;;23.92;72.45
10145;BME280;5113;41.822;23.564;2023-06-05T14:19:29;-11563.22;;;22.69;74.79
10145;BME280;5113;41.822;23.564;2023-06-05T14:22:36;-11566.59;;;22.82;74.05
10145;BME280;5113;41.822;23.564;2023-06-05T14:25:42;-11556.88;;;22.47;77.85
10145;BME280;5113;41.822;23.564;2023-06-05T14:28:48;-11582.00;;;23.37;76.61
10145;BME280;5113;41.822;23.564;2023-06-05T14:31:55;-11584.25;;;23.45;74.19
10145;BME280;5113;41.822;23.564;2023-06-05T14:35:03;-11585.38;;;23.49;74.29
10145;BME280;5113;41.822;23.564;2023-06-05T14:38:10;-11570.69;;;22.96;80.34
10145;BME280;5113;41.822;23.564;2023-06-05T14:41:17;-11556.31;;;22.45;83.94
10145;BME280;5113;41.822;23.564;2023-06-05T14:44:24;-11560.97;;;22.61;81.74
10145;BME280;5113;41.822;23.564;2023-06-05T14:47:30;-11551.22;;;22.26;84.06
10145;BME280;5113;41.822;23.564;2023-06-05T14:50:38;-11557.72;;;22.50;82.94
10145;BME280;5113;41.822;23.564;2023-06-05T14:53:44;-11554.63;;;22.38;83.26
10145;BME280;5113;41.822;23.564;2023-06-05T14:56:51;-11564.06;;;22.72;81.90
10145;BME280;5113;41.822;23.564;2023-06-05T14:59:57;-11561.53;;;22.63;85.13
10145;BME280;5113;41.822;23.564;2023-06-05T15:03:04;-11559.53;;;22.56;86.68
10145;BME280;5113;41.822;23.564;2023-06-05T15:06:12;-11553.06;;;22.33;90.53
10145;BME280;5113;41.822;23.564;2023-06-05T15:09:23;-11562.22;;;22.66;86.36
10145;BME280;5113;41.822;23.564;2023-06-05T15:12:30;-11563.34;;;22.70;88.47
10145;BME280;5113;41.822;23.564;2023-06-05T15:15:36;-11550.38;;;22.23;87.56
10145;BME280;5113;41.822;23.564;2023-06-05T15:18:43;-11564.78;;;22.75;82.04
10145;BME280;5113;41.822;23.564;2023-06-05T15:21:51;-11547.56;;;22.13;82.06
10145;BME280;5113;41.822;23.564;2023-06-05T15:24:57;-11550.53;;;22.24;83.28
10145;BME280;5113;41.822;23.564;2023-06-05T15:28:04;-11548.41;;;22.16;87.05
10145;BME280;5113;41.822;23.564;2023-06-05T15:31:11;-11542.06;;;21.93;89.87
10145;BME280;5113;41.822;23.564;2023-06-05T15:34:17;-11540.94;;;21.89;93.26
10145;BME280;5113;41.822;23.564;2023-06-05T15:37:25;-11550.09;;;22.22;89.53
10145;BME280;5113;41.822;23.564;2023-06-05T15:40:32;-11552.50;;;22.31;93.53
10145;BME280;5113;41.822;23.564;2023-06-05T15:43:38;-11547.00;;;22.11;87.74
10145;BME280;5113;41.822;23.564;2023-06-05T15:46:45;-11527.25;;;21.40;90.18
10145;BME280;5113;41.822;23.564;2023-06-05T15:49:52;-11530.06;;;21.50;92.63
10145;BME280;5113;41.822;23.564;2023-06-05T15:52:59;-11533.44;;;21.62;93.07
10145;BME280;5113;41.822;23.564;2023-06-05T15:56:05;-11545.44;;;22.05;90.40
10145;BME280;5113;41.822;23.564;2023-06-05T15:59:12;-11530.34;;;21.51;94.76
10145;BME280;5113;41.822;23.564;2023-06-05T16:02:18;-11540.50;;;21.88;92.57
10145;BME280;5113;41.822;23.564;2023-06-05T16:05:25;-11542.34;;;21.94;91.25
10145;BME280;5113;41.822;23.564;2023-06-05T16:08:33;-11540.63;;;21.88;94.61
10145;BME280;5113;41.822;23.564;2023-06-05T16:11:39;-11536.56;;;21.73;98.36
10145;BME280;5113;41.822;23.564;2023-06-05T16:14:46;-11531.47;;;21.55;99.36
10145;BME280;5113;41.822;23.564;2023-06-05T16:17:52;-11530.91;;;21.53;100.00
10145;BME280;5113;41.822;23.564;2023-06-05T16:20:58;-11531.19;;;21.54;100.00